Time;durP1;ratioP1;P1;durP2;ratioP2;P2;SDS_P1;SDS_P2;PMS_P1;PMS_P2;Temp;Humidity;BMP_temperature;BMP_pressure;BME280_temperature;BME280_humidity;BME280_pressure;Samples;Min_cycle;Max_cycle;Signal;HPM_P1;HPM_P2
2023/01/26 00:01:06;;;;;;;25.20;14.63;;;21.30;55.30;;;;;;5091980;28;20069;-71
2023/01/26 00:03:32;;;;;;;24.42;15.25;;;21.30;55.30;;;;;;5092075;28;20032;-71
2023/01/26 00:06:05;;;;;;;23.55;13.32;;;21.30;55.10;;;;;;5090446;28;20036;-71
2023/01/26 00:08:36;;;;;;;19.65;11.90;;;21.30;55.00;;;;;;5092112;28;20068;-71
2023/01/26 00:11:04;;;;;;;19.98;12.50;;;21.30;55.00;;;;;;5092074;28;20024;-71
2023/01/26 00:13:32;;;;;;;20.15;12.35;;;21.40;54.90;;;;;;5092055;28;20032;-71
2023/01/26 00:15:59;;;;;;;22.75;13.13;;;21.40;54.70;;;;;;5089394;28;20047;-70
2023/01/26 00:18:25;;;;;;;20.67;12.20;;;21.40;54.50;;;;;;5091993;28;20040;-71
2023/01/26 00:20:56;;;;;;;20.08;11.38;;;21.50;54.50;;;;;;5091658;28;20085;-70
2023/01/26 00:23:23;;;;;;;20.30;12.20;;;21.40;54.40;;;;;;5091713;28;20020;-71
2023/01/26 00:25:48;;;;;;;19.45;11.18;;;21.40;54.30;;;;;;5091647;28;20036;-71
2023/01/26 00:28:15;;;;;;;21.95;12.00;;;21.40;54.40;;;;;;5091014;28;20035;-71
2023/01/26 00:30:41;;;;;;;18.83;11.35;;;21.40;54.40;;;;;;5089764;28;20435;-70
2023/01/26 00:33:07;;;;;;;17.73;10.40;;;21.30;54.40;;;;;;5091471;28;20036;-71
2023/01/26 00:35:33;;;;;;;18.52;11.48;;;21.30;54.40;;;;;;5091639;28;20078;-71
2023/01/26 00:38:01;;;;;;;18.60;11.18;;;21.20;54.30;;;;;;5090164;28;20063;-71
2023/01/26 00:40:26;;;;;;;14.93;9.50;;;21.20;54.30;;;;;;5091603;28;20068;-71
2023/01/26 00:42:53;;;;;;;18.73;10.27;;;21.20;54.40;;;;;;5090139;28;20032;-71
2023/01/26 00:45:22;;;;;;;16.45;10.15;;;21.10;54.30;;;;;;5090646;28;20159;-71
2023/01/26 00:47:48;;;;;;;19.50;11.50;;;21.10;54.20;;;;;;5090044;28;20042;-70
2023/01/26 00:50:14;;;;;;;18.42;9.93;;;21.20;54.20;;;;;;5091363;28;20024;-71
2023/01/26 00:52:40;;;;;;;18.20;9.82;;;21.10;54.10;;;;;;5071893;28;20496;-70
2023/01/26 00:55:07;;;;;;;18.48;11.50;;;21.00;54.20;;;;;;5090953;28;20027;-71
2023/01/26 00:57:33;;;;;;;17.30;10.55;;;21.10;54.10;;;;;;5091428;28;20028;-70
2023/01/26 00:59:59;;;;;;;17.27;10.10;;;21.10;54.20;;;;;;5094994;28;20036;-71
2023/01/26 01:02:25;;;;;;;18.02;10.48;;;21.10;54.00;;;;;;5093789;28;20028;-71
2023/01/26 01:04:51;;;;;;;17.98;10.60;;;21.20;53.90;;;;;;5094800;28;20671;-71
2023/01/26 01:07:18;;;;;;;17.83;10.95;;;21.20;53.70;;;;;;5093791;28;20119;-71
2023/01/26 01:09:45;;;;;;;17.63;8.90;;;21.30;53.70;;;;;;5094744;28;20044;-71
2023/01/26 01:12:11;;;;;;;15.45;10.20;;;21.20;53.60;;;;;;5076925;28;20039;-70
2023/01/26 01:14:37;;;;;;;17.20;9.30;;;21.20;53.60;;;;;;5094992;28;20457;-70
2023/01/26 01:17:03;;;;;;;15.90;9.50;;;21.30;53.60;;;;;;5095128;28;20028;-71
2023/01/26 01:19:29;;;;;;;17.08;10.20;;;21.30;53.50;;;;;;5093730;28;20035;-71
2023/01/26 01:21:55;;;;;;;12.82;9.07;;;21.20;53.40;;;;;;5094748;28;20397;-71
2023/01/26 01:24:21;;;;;;;15.25;8.93;;;21.20;53.30;;;;;;5095330;28;20032;-71
2023/01/26 01:26:47;;;;;;;15.48;9.25;;;21.20;53.30;;;;;;5094029;28;20039;-70
2023/01/26 01:29:13;;;;;;;14.50;9.23;;;21.20;53.40;;;;;;5094668;28;20028;-71
2023/01/26 01:31:42;;;;;;;14.32;7.82;;;21.10;53.40;;;;;;5075308;28;20216;-71
2023/01/26 01:34:08;;;;;;;12.23;8.25;;;21.20;53.40;;;;;;5094312;28;20385;-70
2023/01/26 01:36:34;;;;;;;12.75;8.27;;;21.10;53.40;;;;;;5094267;28;20036;-70
2023/01/26 01:39:01;;;;;;;14.15;8.15;;;21.10;53.50;;;;;;5093280;28;20043;-70
2023/01/26 01:41:27;;;;;;;14.07;7.85;;;21.00;53.30;;;;;;5094345;28;20471;-71
2023/01/26 01:44:22;;;;;;;14.50;8.25;;;21.00;53.30;;;;;;5094394;28;20039;-71
2023/01/26 01:46:54;;;;;;;13.15;7.43;;;21.00;53.30;;;;;;5094647;28;20044;-71
2023/01/26 01:49:37;;;;;;;14.88;8.13;;;21.00;53.30;;;;;;5059877;28;20127;-70
2023/01/26 01:52:18;;;;;;;;;;;21.00;53.40;;;;;;5095028;28;20055;-71
2023/01/26 01:55:00;;;;;;;12.70;7.10;;;21.00;53.30;;;;;;5094575;28;20369;-71
2023/01/26 01:57:43;;;;;;;15.13;8.95;;;21.00;53.10;;;;;;5076502;28;20070;-71
2023/01/26 02:00:17;;;;;;;13.75;8.15;;;21.00;53.10;;;;;;5094296;28;20097;-71
2023/01/26 02:03:09;;;;;;;11.20;7.32;;;21.00;52.90;;;;;;5094208;28;20028;-71
2023/01/26 02:05:34;;;;;;;10.52;6.72;;;21.10;52.90;;;;;;5093085;28;20105;-70
2023/01/26 02:08:02;;;;;;;14.65;7.97;;;21.10;52.80;;;;;;5093150;28;20081;-71
2023/01/26 02:10:29;;;;;;;14.05;7.47;;;21.00;52.60;;;;;;5092708;28;20114;-71
2023/01/26 02:12:56;;;;;;;13.82;7.53;;;21.10;52.60;;;;;;5092700;28;20032;-71
2023/01/26 02:15:22;;;;;;;11.68;7.20;;;21.10;52.50;;;;;;5093992;28;20039;-71
2023/01/26 02:17:51;;;;;;;12.35;6.50;;;21.10;52.50;;;;;;5094115;28;20028;-70
2023/01/26 02:20:27;;;;;;;12.43;7.43;;;21.00;52.40;;;;;;5094092;28;20032;-71
2023/01/26 02:23:05;;;;;;;11.55;7.13;;;21.00;52.40;;;;;;5093942;28;20036;-71
2023/01/26 02:25:39;;;;;;;13.23;8.07;;;21.00;52.40;;;;;;5093986;28;20074;-71
2023/01/26 02:28:05;;;;;;;14.63;7.00;;;21.00;52.50;;;;;;5093013;28;20047;-70
2023/01/26 02:30:31;;;;;;;8.95;6.60;;;21.00;52.50;;;;;;5093993;28;20503;-71
2023/01/26 02:32:58;;;;;;;11.68;6.45;;;21.00;52.50;;;;;;5092213;28;20047;-70
2023/01/26 02:35:24;;;;;;;9.48;6.95;;;20.90;52.50;;;;;;5092652;28;20035;-71
2023/01/26 02:37:50;;;;;;;11.68;7.03;;;20.80;52.40;;;;;;5092463;28;20028;-70
2023/01/26 02:40:37;;;;;;;14.00;6.95;;;20.80;52.60;;;;;;5092334;28;20028;-70
2023/01/26 02:43:03;;;;;;;12.38;7.18;;;20.80;52.60;;;;;;5092480;28;20036;-71
2023/01/26 02:45:31;;;;;;;11.88;7.07;;;20.80;52.60;;;;;;5092120;28;20093;-71
2023/01/26 02:47:58;;;;;;;12.80;6.90;;;20.90;52.50;;;;;;5092396;28;20036;-70
2023/01/26 02:50:24;;;;;;;11.48;7.03;;;20.90;52.40;;;;;;5075261;28;20032;-70
2023/01/26 02:52:52;;;;;;;11.73;6.05;;;21.00;52.40;;;;;;5092209;28;20047;-70
2023/01/26 02:55:27;;;;;;;9.85;5.30;;;20.90;52.40;;;;;;5092279;28;20088;-71
2023/01/26 02:57:54;;;;;;;;;;;20.90;52.30;;;;;;5075737;28;20070;-71
2023/01/26 03:00:27;;;;;;;10.88;6.07;;;21.00;52.20;;;;;;5092165;28;19999;-70
2023/01/26 03:02:56;;;;;;;10.40;6.05;;;21.00;52.10;;;;;;5093183;28;20086;-71
2023/01/26 03:05:24;;;;;;;12.40;6.57;;;21.00;52.00;;;;;;5091991;28;20035;-71
2023/01/26 03:07:51;;;;;;;12.40;6.70;;;21.00;52.00;;;;;;5092022;28;20127;-70
2023/01/26 03:10:23;;;;;;;11.50;6.55;;;21.00;52.00;;;;;;5092102;28;20078;-70
2023/01/26 03:12:51;;;;;;;10.93;6.40;;;21.00;51.80;;;;;;5075318;28;20165;-70
2023/01/26 03:29:32;;;;;;;11.65;7.00;;;20.80;51.90;;;;;;5052995;28;20044;-71
2023/01/26 03:31:59;;;;;;;12.25;7.03;;;20.70;52.00;;;;;;5052810;28;20437;-70
2023/01/26 03:34:26;;;;;;;12.88;7.43;;;20.80;51.90;;;;;;5052637;28;20159;-71
2023/01/26 03:36:53;;;;;;;11.48;7.30;;;20.70;51.90;;;;;;5052991;28;20053;-71
2023/01/26 03:58:50;;;;;;;14.45;9.25;;;20.80;51.40;;;;;;5091141;28;20192;-70
2023/01/26 04:01:20;;;;;;;15.10;9.43;;;20.90;51.40;;;;;;5057288;28;20560;-70
2023/01/26 04:09:23;;;;;;;14.43;8.40;;;20.80;51.20;;;;;;5091938;28;20059;-71
2023/01/26 04:11:49;;;;;;;16.85;8.98;;;20.80;51.20;;;;;;5090734;28;20384;-70
2023/01/26 04:22:42;;;;;;;15.25;9.05;;;20.70;51.40;;;;;;5089788;28;20054;-70
2023/01/26 04:25:10;;;;;;;13.95;7.78;;;20.70;51.40;;;;;;5089924;28;20558;-71
2023/01/26 04:27:36;;;;;;;16.15;9.02;;;20.60;51.40;;;;;;5090673;28;20098;-70
2023/01/26 04:30:03;;;;;;;13.45;8.65;;;20.60;51.40;;;;;;5090252;28;20469;-70
2023/01/26 04:32:30;;;;;;;14.18;8.73;;;20.60;51.40;;;;;;5091547;28;20032;-71
2023/01/26 04:34:56;;;;;;;13.55;7.50;;;20.60;51.60;;;;;;5090037;28;20040;-70
2023/01/26 04:37:23;;;;;;;13.00;8.07;;;20.60;51.60;;;;;;5090277;28;20032;-70
2023/01/26 04:39:50;;;;;;;12.85;7.45;;;20.70;51.50;;;;;;5090628;28;20071;-70
2023/01/26 04:42:17;;;;;;;12.93;8.32;;;20.70;51.40;;;;;;5090346;28;20034;-70
2023/01/26 04:44:43;;;;;;;12.43;7.03;;;20.80;51.30;;;;;;5091525;28;20020;-70
2023/01/26 04:47:09;;;;;;;13.32;8.02;;;20.90;51.20;;;;;;5091333;28;20078;-70
2023/01/26 04:49:36;;;;;;;12.55;7.28;;;20.80;50.90;;;;;;5090207;28;20032;-70
2023/01/26 04:52:02;;;;;;;12.35;7.22;;;20.90;51.10;;;;;;5090255;28;20098;-70
2023/01/26 04:54:29;;;;;;;15.00;8.07;;;20.80;51.10;;;;;;5090071;28;20063;-70
2023/01/26 04:56:55;;;;;;;17.88;7.85;;;20.80;51.20;;;;;;5090183;28;20120;-70
2023/01/26 04:59:21;;;;;;;13.07;8.02;;;20.70;51.20;;;;;;5090026;28;20481;-70
2023/01/26 05:01:47;;;;;;;14.43;8.35;;;20.80;51.20;;;;;;5089932;28;20036;-71
2023/01/26 05:04:14;;;;;;;11.43;7.25;;;20.90;51.20;;;;;;5089991;28;20064;-70
2023/01/26 05:06:43;;;;;;;13.95;7.07;;;20.80;51.50;;;;;;5090169;28;20626;-71
2023/01/26 05:09:10;;;;;;;8.00;5.85;;;21.10;50.90;;;;;;5089991;28;20068;-71
2023/01/26 05:11:37;;;;;;;10.93;5.97;;;21.20;50.50;;;;;;5090062;28;20085;-71
2023/01/26 05:14:12;;;;;;;8.88;5.65;;;21.50;50.50;;;;;;5091002;28;20039;-70
2023/01/26 05:16:58;;;;;;;17.15;7.82;;;21.50;50.30;;;;;;5089594;28;20093;-70
2023/01/26 05:19:50;;;;;;;15.05;8.38;;;21.70;50.30;;;;;;5046153;28;20056;-70
2023/01/26 05:22:36;;;;;;;14.30;8.13;;;21.50;50.60;;;;;;4969387;28;20046;-70
2023/01/26 05:25:25;;;;;;;14.25;8.52;;;21.50;53.10;;;;;;4911925;29;20052;-71
2023/01/26 05:27:58;;;;;;;12.30;7.45;;;22.10;56.80;;;;;;4896574;29;20407;-72
2023/01/26 05:30:24;;;;;;;15.25;8.15;;;22.60;58.80;;;;;;4896338;29;20040;-73
2023/01/26 05:32:50;;;;;;;14.18;7.65;;;22.70;59.50;;;;;;4912339;29;20064;-71
2023/01/26 05:35:16;;;;;;;13.77;6.55;;;22.60;53.60;;;;;;4896411;29;20095;-71
2023/01/26 05:37:44;;;;;;;12.55;7.93;;;22.50;52.40;;;;;;4896468;29;20059;-73
2023/01/26 05:40:11;;;;;;;20.73;8.95;;;22.50;51.10;;;;;;4896725;29;20048;-70
2023/01/26 05:42:38;;;;;;;17.63;9.30;;;22.40;48.10;;;;;;4880715;29;20174;-72
2023/01/26 05:45:39;;;;;;;13.60;7.82;;;22.20;46.80;;;;;;4859614;29;20045;-70
2023/01/26 05:48:06;;;;;;;14.98;8.90;;;21.90;46.60;;;;;;4844273;29;20268;-71
2023/01/26 05:50:32;;;;;;;19.65;7.80;;;21.70;48.00;;;;;;4859689;29;20089;-70
2023/01/26 05:53:12;;;;;;;13.63;8.60;;;21.60;49.20;;;;;;4859595;29;20052;-70
2023/01/26 05:55:38;;;;;;;15.07;9.05;;;21.40;49.80;;;;;;4846836;29;20289;-70
2023/01/26 05:58:05;;;;;;;10.50;6.35;;;21.30;50.80;;;;;;4881133;29;20123;-70
2023/01/26 06:00:31;;;;;;;11.43;6.72;;;21.30;51.70;;;;;;4928212;29;20118;-70
2023/01/26 06:03:04;;;;;;;12.38;7.35;;;21.60;51.50;;;;;;4998135;28;20193;-70
2023/01/26 06:05:30;;;;;;;15.32;9.07;;;21.70;50.90;;;;;;4995493;28;20455;-72
2023/01/26 06:07:57;;;;;;;18.35;8.68;;;21.70;51.30;;;;;;5027958;28;20127;-70
2023/01/26 06:10:27;;;;;;;17.20;8.45;;;21.80;54.70;;;;;;5011643;28;20053;-71
2023/01/26 06:13:05;;;;;;;15.63;9.27;;;22.00;54.70;;;;;;5027891;28;20426;-71
2023/01/26 06:15:41;;;;;;;16.48;9.10;;;22.30;55.80;;;;;;5011767;28;20049;-71
2023/01/26 06:18:07;;;;;;;15.68;8.85;;;22.60;55.80;;;;;;5011561;28;20144;-71
2023/01/26 06:20:34;;;;;;;16.33;8.38;;;22.50;56.80;;;;;;5107383;27;20122;-72
2023/01/26 06:23:01;;;;;;;13.35;8.77;;;22.80;58.00;;;;;;5091224;28;20044;-73
2023/01/26 06:25:30;;;;;;;12.10;8.82;;;22.90;60.00;;;;;;5074493;28;20174;-73
2023/01/26 06:27:57;;;;;;;12.70;8.45;;;22.90;60.30;;;;;;5074378;28;20117;-73
2023/01/26 06:30:27;;;;;;;14.90;9.40;;;23.00;60.50;;;;;;5074457;28;20029;-72
2023/01/26 06:32:58;;;;;;;13.15;8.30;;;23.00;60.40;;;;;;5074238;28;20044;-71
2023/01/26 06:35:25;;;;;;;12.30;8.13;;;23.20;57.90;;;;;;5057741;28;20028;-71
2023/01/26 06:37:54;;;;;;;15.65;8.32;;;23.10;54.10;;;;;;5074200;28;20067;-72
2023/01/26 06:40:20;;;;;;;15.40;9.02;;;22.90;53.80;;;;;;5074083;28;20038;-71
2023/01/26 06:42:49;;;;;;;17.83;9.02;;;22.80;53.90;;;;;;5073776;28;20071;-70
2023/01/26 06:45:19;;;;;;;13.73;8.73;;;22.60;53.90;;;;;;5074079;28;20112;-68
2023/01/26 06:47:47;;;;;;;13.10;8.38;;;22.70;54.90;;;;;;5073901;28;20031;-71
2023/01/26 06:50:15;;;;;;;15.10;9.55;;;22.60;55.70;;;;;;5074178;28;20039;-69
2023/01/26 06:52:44;;;;;;;13.65;8.85;;;22.50;56.10;;;;;;5074185;28;20032;-71
2023/01/26 06:55:37;;;;;;;15.32;8.95;;;22.40;56.00;;;;;;5092180;28;20064;-71
2023/01/26 06:58:25;;;;;;;17.30;9.00;;;22.30;56.20;;;;;;5093259;28;20035;-71
2023/01/26 07:01:20;;;;;;;12.07;8.07;;;22.30;56.40;;;;;;5050481;28;20430;-70
2023/01/26 07:03:50;;;;;;;18.38;9.27;;;22.20;56.70;;;;;;5050680;28;20128;-71
2023/01/26 07:06:16;;;;;;;17.40;8.65;;;22.20;56.70;;;;;;5033849;28;20045;-71
2023/01/26 07:08:43;;;;;;;13.77;8.63;;;22.10;56.80;;;;;;5050166;28;20429;-74
2023/01/26 07:11:10;;;;;;;16.38;8.88;;;22.10;57.00;;;;;;5049737;28;20163;-72
2023/01/26 07:13:36;;;;;;;16.38;9.23;;;22.10;58.20;;;;;;5050206;28;20041;-73
2023/01/26 07:16:07;;;;;;;19.38;10.45;;;22.30;57.10;;;;;;5050022;28;20036;-73
2023/01/26 07:18:34;;;;;;;15.38;10.02;;;22.30;56.80;;;;;;5050121;28;20048;-72
2023/01/26 07:21:11;;;;;;;18.13;9.75;;;22.20;57.00;;;;;;5033032;28;20075;-72
2023/01/26 07:23:38;;;;;;;22.67;10.98;;;22.10;57.30;;;;;;5029842;28;20133;-73
2023/01/26 07:26:05;;;;;;;17.30;10.50;;;22.00;57.30;;;;;;5030043;28;20124;-78
2023/01/26 07:28:33;;;;;;;15.85;9.60;;;22.10;57.70;;;;;;5030015;28;20045;-74
2023/01/26 07:31:03;;;;;;;16.88;10.77;;;22.10;57.90;;;;;;5013760;28;20060;-73
2023/01/26 07:33:31;;;;;;;18.83;9.55;;;22.00;58.00;;;;;;5029769;28;20040;-74
2023/01/26 07:35:57;;;;;;;21.35;10.98;;;21.90;58.20;;;;;;5029589;28;20410;-75
2023/01/26 07:38:25;;;;;;;12.30;6.35;;;21.90;58.40;;;;;;5066856;28;20040;-72
2023/01/26 07:40:51;;;;;;;13.93;8.07;;;21.90;58.90;;;;;;5110605;28;20065;-73
2023/01/26 07:43:17;;;;;;;11.27;6.50;;;22.20;58.20;;;;;;5092796;28;20028;-77
2023/01/26 07:45:52;;;;;;;13.52;7.43;;;22.30;57.60;;;;;;5097151;28;20031;-76
2023/01/26 07:48:21;;;;;;;12.18;7.32;;;22.50;56.40;;;;;;5112032;28;20036;-75
2023/01/26 07:50:47;;;;;;;13.85;7.80;;;22.70;55.20;;;;;;5111633;28;20028;-75
2023/01/26 07:53:18;;;;;;;18.40;8.15;;;22.60;54.00;;;;;;5112938;28;20651;-75
2023/01/26 07:55:45;;;;;;;15.15;7.60;;;22.80;53.10;;;;;;5093752;28;20028;-74
2023/01/26 07:58:12;;;;;;;13.00;7.97;;;22.80;51.90;;;;;;5092010;28;20044;-72
2023/01/26 08:00:38;;;;;;;14.45;8.85;;;22.80;51.20;;;;;;5091806;28;20428;-71
2023/01/26 08:03:05;;;;;;;13.68;8.05;;;22.70;50.60;;;;;;5072912;28;20135;-72
2023/01/26 08:05:32;;;;;;;11.30;7.70;;;22.70;50.20;;;;;;5092347;28;20431;-72
2023/01/26 08:07:58;;;;;;;15.93;8.48;;;22.80;50.20;;;;;;5091159;28;20093;-73
2023/01/26 08:10:30;;;;;;;14.82;8.73;;;22.80;50.80;;;;;;5090113;28;20024;-73
2023/01/26 08:12:59;;;;;;;13.73;8.40;;;22.80;51.10;;;;;;5110781;28;20453;-73
2023/01/26 08:15:26;;;;;;;12.52;7.90;;;22.90;51.50;;;;;;5112205;28;20036;-73
2023/01/26 08:17:55;;;;;;;12.68;8.05;;;22.80;51.10;;;;;;5112313;28;20031;-74
2023/01/26 08:20:21;;;;;;;16.83;9.07;;;22.60;51.80;;;;;;5110927;28;20063;-74
2023/01/26 08:22:47;;;;;;;14.13;7.40;;;22.80;51.90;;;;;;5092045;28;20032;-74
2023/01/26 08:25:13;;;;;;;15.18;6.90;;;22.80;51.70;;;;;;5090505;28;20063;-74
2023/01/26 08:27:39;;;;;;;15.75;7.93;;;22.90;51.90;;;;;;5092061;28;20036;-74
2023/01/26 08:30:05;;;;;;;15.40;9.48;;;22.90;52.00;;;;;;5091752;28;20093;-73
2023/01/26 08:32:31;;;;;;;15.20;9.88;;;22.80;51.90;;;;;;5072329;28;20544;-72
2023/01/26 08:34:57;;;;;;;16.67;9.50;;;22.80;50.00;;;;;;5091957;28;20031;-76
2023/01/26 08:37:23;;;;;;;18.13;10.38;;;22.80;51.30;;;;;;5091590;28;20392;-72
2023/01/26 08:39:49;;;;;;;21.20;10.75;;;22.70;52.10;;;;;;5091580;28;20377;-71
2023/01/26 08:42:15;;;;;;;22.15;10.57;;;22.60;52.60;;;;;;5089074;28;20046;-72
2023/01/26 08:44:41;;;;;;;21.35;10.13;;;22.30;53.40;;;;;;5091732;28;20474;-72
2023/01/26 08:47:07;;;;;;;20.23;10.75;;;22.30;54.60;;;;;;5104486;28;20507;-69
2023/01/26 08:49:33;;;;;;;19.08;10.82;;;22.20;55.10;;;;;;5091425;28;20063;-71
2023/01/26 08:51:59;;;;;;;19.23;10.50;;;22.10;55.30;;;;;;5091766;28;20059;-72
2023/01/26 08:54:25;;;;;;;20.13;11.18;;;22.10;55.50;;;;;;5091261;28;20035;-72
2023/01/26 08:56:53;;;;;;;20.70;12.32;;;22.10;56.00;;;;;;5091264;28;20036;-73
2023/01/26 08:59:19;;;;;;;20.77;10.82;;;22.00;56.40;;;;;;5089806;28;20032;-73
2023/01/26 09:01:46;;;;;;;22.40;11.48;;;22.00;57.20;;;;;;5091444;28;20031;-73
2023/01/26 09:04:12;;;;;;;20.55;11.18;;;22.00;58.60;;;;;;5091319;28;20036;-72
2023/01/26 09:06:38;;;;;;;24.80;11.75;;;22.00;58.50;;;;;;5091541;28;20039;-72
2023/01/26 09:09:04;;;;;;;21.25;10.82;;;21.90;58.50;;;;;;5091317;28;20075;-75
2023/01/26 09:11:31;;;;;;;20.50;10.65;;;22.00;58.90;;;;;;5090939;28;20165;-77
2023/01/26 09:13:57;;;;;;;23.00;10.27;;;21.80;59.00;;;;;;5090956;28;20093;-74
2023/01/26 09:16:24;;;;;;;17.52;11.38;;;22.00;64.30;;;;;;5090940;28;20436;-75
2023/01/26 09:18:51;;;;;;;18.90;12.50;;;22.40;63.30;;;;;;5092204;28;20036;-76
2023/01/26 09:21:18;;;;;;;19.20;10.15;;;22.90;63.50;;;;;;5094770;28;20042;-74
2023/01/26 09:23:44;;;;;;;17.83;10.65;;;23.20;61.10;;;;;;5094039;28;20028;-73
2023/01/26 09:26:10;;;;;;;15.98;9.68;;;23.00;55.70;;;;;;5094864;28;20511;-74
2023/01/26 09:28:36;;;;;;;18.35;9.02;;;22.90;56.60;;;;;;5094577;28;20035;-75
2023/01/26 09:31:09;;;;;;;16.73;9.15;;;22.80;56.60;;;;;;5095422;28;20136;-76
2023/01/26 09:33:36;;;;;;;20.23;11.30;;;22.70;56.50;;;;;;5095183;28;20036;-76
2023/01/26 09:36:09;;;;;;;19.38;11.00;;;22.60;56.50;;;;;;5095292;28;20032;-76
2023/01/26 09:38:36;;;;;;;19.45;10.90;;;22.50;58.20;;;;;;5094882;28;20041;-73
2023/01/26 09:41:02;;;;;;;18.67;10.32;;;22.40;57.90;;;;;;5076510;28;20035;-73
2023/01/26 09:44:03;;;;;;;19.95;11.23;;;22.50;58.30;;;;;;5094810;28;20440;-73
2023/01/26 09:46:59;;;;;;;18.33;9.95;;;22.40;58.50;;;;;;5045444;28;20057;-73
2023/01/26 09:49:28;;;;;;;17.67;10.23;;;22.50;58.40;;;;;;5051852;28;20044;-72
2023/01/26 09:52:08;;;;;;;23.08;10.93;;;22.30;60.00;;;;;;5051771;28;20541;-73
2023/01/26 09:54:49;;;;;;;19.27;9.63;;;22.80;63.30;;;;;;5052159;28;20359;-76
2023/01/26 09:57:28;;;;;;;22.75;11.48;;;23.30;62.70;;;;;;5052140;28;20064;-78
2023/01/26 10:00:17;;;;;;;15.45;9.25;;;23.80;57.50;;;;;;5051724;28;20033;-75
2023/01/26 10:03:17;;;;;;;17.55;10.50;;;23.90;56.50;;;;;;4972961;28;20051;-74
2023/01/26 10:06:20;;;;;;;27.15;12.20;;;23.80;56.90;;;;;;4973360;28;20038;-74
2023/01/26 10:09:25;;;;;;;24.52;11.77;;;23.50;56.80;;;;;;4934416;29;20102;-73
2023/01/26 10:12:01;;;;;;;23.88;12.75;;;23.30;57.60;;;;;;4934351;29;20039;-74
2023/01/26 10:14:39;;;;;;;17.75;9.77;;;23.20;58.20;;;;;;4934232;29;20138;-74
2023/01/26 10:17:24;;;;;;;22.83;11.40;;;23.00;58.60;;;;;;4921610;29;20040;-73
2023/01/26 10:19:59;;;;;;;20.80;11.57;;;23.00;58.40;;;;;;4915341;29;20048;-74
2023/01/26 10:22:44;;;;;;;18.92;9.98;;;23.10;58.00;;;;;;4934273;28;20105;-73
2023/01/26 10:25:40;;;;;;;22.85;11.13;;;23.00;58.60;;;;;;4972409;28;20051;-74
2023/01/26 10:28:15;;;;;;;17.25;9.65;;;23.10;58.90;;;;;;4953325;29;20083;-74
2023/01/26 10:30:44;;;;;;;21.88;10.88;;;23.00;59.60;;;;;;4952785;28;20050;-73
2023/01/26 10:33:25;;;;;;;21.05;10.63;;;22.80;61.20;;;;;;4953096;29;20047;-74
2023/01/26 10:35:51;;;;;;;20.80;11.45;;;22.80;60.30;;;;;;4953093;29;20035;-74
2023/01/26 10:38:37;;;;;;;20.83;9.68;;;22.80;60.40;;;;;;4953098;29;20134;-74
2023/01/26 10:41:24;;;;;;;18.63;11.20;;;22.80;60.20;;;;;;4972417;28;20035;-74
2023/01/26 10:43:54;;;;;;;16.92;9.88;;;22.80;59.90;;;;;;4985341;28;20034;-74
2023/01/26 10:46:36;;;;;;;16.55;9.18;;;22.70;61.20;;;;;;4991200;28;20572;-73
2023/01/26 10:49:16;;;;;;;21.05;10.13;;;22.60;60.80;;;;;;4991169;28;20117;-74
2023/01/26 10:51:44;;;;;;;18.35;11.00;;;22.60;61.10;;;;;;4991038;28;20065;-74
2023/01/26 10:54:23;;;;;;;18.25;10.27;;;22.60;61.30;;;;;;4991277;28;20034;-81
2023/01/26 10:56:54;;;;;;;17.70;9.90;;;23.00;61.70;;;;;;4991615;28;20729;-76
2023/01/26 10:59:42;;;;;;;19.08;10.25;;;23.70;71.60;;;;;;4974901;28;20034;-74
2023/01/26 11:02:11;;;;;;;19.40;12.30;;;24.30;67.80;;;;;;4991017;28;20122;-75
2023/01/26 11:04:38;;;;;;;15.93;10.70;;;24.10;62.90;;;;;;5047101;28;20051;-74
2023/01/26 11:07:27;;;;;;;14.57;9.32;;;24.50;63.00;;;;;;5093844;28;20024;-76
2023/01/26 11:09:54;;;;;;;16.27;8.98;;;24.80;65.70;;;;;;5093463;28;20078;-75
2023/01/26 11:12:23;;;;;;;11.57;8.57;;;25.30;61.80;;;;;;5093236;28;20082;-74
2023/01/26 11:15:02;;;;;;;13.13;9.07;;;25.60;62.50;;;;;;5093266;28;20050;-74
2023/01/26 11:17:59;;;;;;;14.88;8.60;;;25.80;55.90;;;;;;5093084;28;20473;-76
2023/01/26 11:20:46;;;;;;;11.30;8.20;;;25.50;53.00;;;;;;5092688;28;20028;-75
2023/01/26 11:23:24;;;;;;;15.65;9.18;;;25.30;53.10;;;;;;5093035;28;20036;-75
2023/01/26 11:26:16;;;;;;;17.20;9.93;;;25.20;52.90;;;;;;5091777;28;20040;-73
2023/01/26 11:29:19;;;;;;;12.30;8.75;;;24.90;53.20;;;;;;5092902;28;20118;-73
2023/01/26 11:31:48;;;;;;;;;;;24.70;52.10;;;;;;5093324;28;20036;-74
2023/01/26 11:34:26;;;;;;;15.70;8.32;;;24.50;54.90;;;;;;5093051;28;19908;-74
2023/01/26 11:37:28;;;;;;;14.25;8.38;;;24.40;54.90;;;;;;5092865;28;20046;-74
2023/01/26 11:40:25;;;;;;;12.90;8.60;;;24.30;55.40;;;;;;5092515;28;20416;-73
2023/01/26 11:43:12;;;;;;;13.13;7.93;;;24.20;55.90;;;;;;5092042;28;20428;-73
2023/01/26 11:45:44;;;;;;;14.60;7.68;;;24.10;56.60;;;;;;5099393;28;20076;-73
2023/01/26 11:48:16;;;;;;;12.53;7.63;;;24.10;56.20;;;;;;5112837;28;20035;-75
2023/01/26 11:50:54;;;;;;;15.00;8.27;;;23.80;56.90;;;;;;5112894;28;20036;-77
2023/01/26 11:53:26;;;;;;;14.32;8.52;;;23.90;57.20;;;;;;5110551;28;20038;-75
2023/01/26 11:56:08;;;;;;;14.35;8.10;;;24.00;57.00;;;;;;5111740;28;20114;-76
2023/01/26 11:58:47;;;;;;;19.42;9.73;;;23.90;57.00;;;;;;5072359;28;20064;-77
2023/01/26 12:01:28;;;;;;;16.42;8.68;;;23.80;57.20;;;;;;5089815;28;20044;-75
2023/01/26 12:03:55;;;;;;;14.65;8.98;;;23.60;57.40;;;;;;5089582;28;20662;-77
2023/01/26 12:06:37;;;;;;;17.98;9.15;;;23.50;58.10;;;;;;5089550;28;20043;-76
2023/01/26 12:09:10;;;;;;;17.40;8.35;;;23.40;57.90;;;;;;5089516;28;20578;-78
2023/01/26 12:11:54;;;;;;;18.13;10.43;;;23.00;58.60;;;;;;5072616;28;20024;-77
2023/01/26 12:14:26;;;;;;;12.68;8.05;;;23.30;59.00;;;;;;5069077;28;20036;-76
2023/01/26 12:17:04;;;;;;;20.73;10.73;;;23.30;59.40;;;;;;5069307;28;20045;-75
2023/01/26 12:19:33;;;;;;;19.98;10.13;;;23.30;59.20;;;;;;5069308;28;20037;-76
2023/01/26 12:22:23;;;;;;;18.63;10.00;;;23.20;59.10;;;;;;5068918;28;20037;-74
2023/01/26 12:24:56;;;;;;;16.60;10.15;;;23.20;59.10;;;;;;5069025;28;20052;-74
2023/01/26 12:27:30;;;;;;;19.17;10.32;;;23.30;59.20;;;;;;5069114;28;20040;-76
2023/01/26 12:30:04;;;;;;;15.88;10.05;;;23.20;61.00;;;;;;5083586;28;20058;-81
2023/01/26 12:32:32;;;;;;;15.90;9.77;;;23.20;62.60;;;;;;5091600;28;20036;-77
2023/01/26 12:34:58;;;;;;;19.85;11.13;;;23.20;61.40;;;;;;5091758;28;20039;-78
2023/01/26 12:37:52;;;;;;;18.95;11.05;;;23.10;60.90;;;;;;5091764;28;20119;-78
2023/01/26 12:40:54;;;;;;;15.63;8.88;;;23.20;60.60;;;;;;5091748;28;20158;-79
2023/01/26 12:43:42;;;;;;;21.33;11.98;;;23.10;60.50;;;;;;5028626;28;20037;-78
2023/01/26 12:46:09;;;;;;;24.13;11.77;;;23.20;59.90;;;;;;5029112;28;20130;-78
2023/01/26 12:48:44;;;;;;;19.40;12.00;;;23.10;60.00;;;;;;5028629;28;20448;-82
2023/01/26 12:51:20;;;;;;;20.80;11.73;;;23.20;59.80;;;;;;5013032;28;20053;-80
2023/01/26 12:53:59;;;;;;;20.05;10.32;;;23.00;59.80;;;;;;4994648;28;20084;-81
2023/01/26 12:56:49;;;;;;;20.67;11.52;;;23.00;60.40;;;;;;5028586;28;20033;-76
2023/01/26 12:59:35;;;;;;;19.08;10.45;;;22.90;60.50;;;;;;5028488;28;20037;-75
2023/01/26 13:02:26;;;;;;;21.08;11.52;;;22.90;60.30;;;;;;5028320;28;20025;-75
2023/01/26 13:04:52;;;;;;;20.63;11.98;;;22.90;60.20;;;;;;5028893;28;20581;-74
2023/01/26 13:07:36;;;;;;;20.48;10.43;;;22.90;60.20;;;;;;5028749;28;20041;-75
2023/01/26 13:10:14;;;;;;;25.55;14.25;;;22.90;61.00;;;;;;5028819;28;20057;-77
2023/01/26 13:13:26;;;;;;;42.13;19.25;;;22.80;60.80;;;;;;5028467;28;20064;-76
2023/01/26 13:16:15;;;;;;;21.45;13.77;;;22.80;61.00;;;;;;4950587;28;20057;-73
2023/01/26 13:18:49;;;;;;;16.58;10.27;;;22.60;61.70;;;;;;4862515;29;20105;-74
2023/01/26 13:21:38;;;;;;;26.05;11.75;;;22.60;61.40;;;;;;4931332;29;20052;-74
2023/01/26 13:24:16;;;;;;;14.75;9.35;;;22.60;61.00;;;;;;4931548;29;20101;-75
2023/01/26 13:26:44;;;;;;;18.95;8.18;;;22.70;61.60;;;;;;4906115;29;20048;-73
2023/01/26 13:29:26;;;;;;;16.80;7.97;;;22.70;61.60;;;;;;4912206;29;20044;-75
2023/01/26 13:31:53;;;;;;;18.60;9.95;;;22.80;61.20;;;;;;4912288;29;20179;-74
2023/01/26 13:34:27;;;;;;;16.23;9.27;;;22.90;60.90;;;;;;4912166;29;20083;-75
2023/01/26 13:37:02;;;;;;;23.00;11.30;;;23.00;60.30;;;;;;4912464;29;20127;-74
2023/01/26 13:39:33;;;;;;;18.92;10.45;;;23.10;59.10;;;;;;4912377;29;20500;-74
2023/01/26 13:41:59;;;;;;;18.15;10.77;;;22.90;60.00;;;;;;4912134;29;20076;-75
2023/01/26 13:44:44;;;;;;;18.00;11.32;;;22.90;60.20;;;;;;4896130;29;20064;-71
2023/01/26 13:47:19;;;;;;;21.95;10.90;;;22.70;60.30;;;;;;4912005;29;20119;-73